Boggsville, Illinois
Current Conditions -  °F | °C
As of 6:55 PM on Saturday 20 Dec 2014 (Local Time) from K1H2 Reporting Station
Broken Clouds Broken Clouds  
Wind Chill: 30°   Ceiling: 2700
Heat Index: 30°   Visibility: 10mi
Dew Point: 25°   Wind: 3mph
Humidity: 82%   Direction: 90°E
Pressure: 30.3"   Gusts: NA
Location:  39.1183°N, 88.6059°W
Report Text: K1H2 210055Z AUTO 09003KT 10SM BKN027 M01/M04 A3030 RMK AO2 T10101038
Loading
Personal Weather Stations






























Interactive Weather Map New forecast layout! Learn more

10-Day Weather Forecast

Advertisements
Track Severe Weather on mobile